Capitol Logistics 904

Operating for DHL



EDDB
Berlin-Brandenburg International
Berlin, DE
EDDK
Cologne Bonn Airport
Cologne, DE

Route Details

Aircraft Information
Group: European Fleet
Types: A30F,A31F,B738
Route Data
Demand: M
Distance: 255nm
Duration: 0h 50m
Recm'd Route: POVE1P POVEL Q201 PODER Z189 RUNER T858 KOPAG KOPA2V
Origin Wx: EDDB 270520Z 26008KT 9999 -RA FEW013 14/13 Q1014 TEMPO RA BKN010
Dest. Wx: EDDK 270520Z AUTO 26015KT 9999 -RADZ OVC014 14/11 Q1020 TEMPO 4000 RADZ BKN012
Notes:

Financial History
Total Freight: 442,230lbs
Average Load: 49,137lbs/flt
Fuel Used: 60,055lbs
Avg. Fuel Used: 6,673lbs/flt
Fuel Expense: $22,823
Avg. Fuel Expense: $2,536
Avg. Fuel Cost: $0.37/lbs
Total Gross Income: $931,067
Pilot Pay: $1,831
Total Expenses: $134,891
Total Revenue: $771,646
Average Revenue: $103,451.94